createdAt,value
2023-05-17T00:00:47.855Z,8.7
2023-05-17T00:20:46.827Z,8.7
2023-05-17T00:40:46.697Z,8.7
2023-05-17T01:00:46.544Z,8.5
2023-05-17T01:20:47.727Z,8.3
2023-05-17T01:40:47.235Z,8.3
2023-05-17T02:00:47.592Z,8.4
2023-05-17T02:20:51.152Z,8.3
2023-05-17T02:40:46.425Z,8.3
2023-05-17T03:00:45.572Z,8.3
2023-05-17T03:20:46.345Z,8.3
2023-05-17T03:40:47.121Z,8.3
2023-05-17T04:01:06.812Z,8.1
2023-05-17T04:21:15.310Z,7.9
2023-05-17T04:41:08.118Z,7.9
2023-05-17T05:01:08.202Z,7.9
2023-05-17T05:21:10.118Z,8
2023-05-17T05:41:12.007Z,7.9
2023-05-17T06:01:15.056Z,8.3
2023-05-17T06:21:07.242Z,8.2
2023-05-17T06:41:09.497Z,8.6
2023-05-17T07:01:12.850Z,8.5
2023-05-17T07:21:14.343Z,8.7
2023-05-17T07:41:07.941Z,8.7
2023-05-17T08:01:13.800Z,9.2
2023-05-17T08:21:08.672Z,9.1
2023-05-17T08:41:07.274Z,9.5
2023-05-17T09:01:11.512Z,10
2023-05-17T09:21:06.351Z,10
2023-05-17T09:41:06.221Z,10.7
2023-05-17T10:01:06.973Z,10.9
2023-05-17T10:21:09.942Z,11.3
2023-05-17T10:41:07.203Z,11.2
2023-05-17T11:01:08.917Z,12
2023-05-17T11:21:09.310Z,11.5
2023-05-17T11:41:10.478Z,12.1
2023-05-17T12:01:06.360Z,12
2023-05-17T12:21:08.153Z,12.3
2023-05-17T12:41:09.671Z,12.8
2023-05-17T13:01:04.651Z,12.7
2023-05-17T13:21:12.122Z,13
2023-05-17T13:41:09.887Z,12.9
2023-05-17T14:01:13.317Z,13.5
2023-05-17T14:21:08.007Z,13.5
2023-05-17T14:41:06.953Z,13.6
2023-05-17T15:01:21.881Z,13.5
2023-05-17T15:21:06.680Z,13.3
2023-05-17T15:41:10.706Z,13
2023-05-17T16:01:10.085Z,12.8
2023-05-17T16:21:13.433Z,12.6
2023-05-17T16:41:11.868Z,12.8
2023-05-17T17:01:13.641Z,12.4
2023-05-17T17:21:12.814Z,12.4
2023-05-17T17:41:06.858Z,12.4
2023-05-17T18:01:08.089Z,12.2
2023-05-17T18:21:16.882Z,12.2
2023-05-17T18:41:12.095Z,12.1
2023-05-17T19:01:06.833Z,12.1
2023-05-17T19:20:47.331Z,11.7
2023-05-17T19:40:47.720Z,11.3
2023-05-17T20:00:49.096Z,11.3
2023-05-17T20:20:49.017Z,11
2023-05-17T20:40:51.997Z,10.9
2023-05-17T21:00:47.908Z,10.9
2023-05-17T21:20:50.404Z,11
2023-05-17T21:40:50.978Z,10.9
2023-05-17T22:00:54.220Z,10.7
2023-05-17T22:20:47.221Z,10.3
2023-05-17T22:40:48.222Z,10.2
2023-05-17T23:00:46.357Z,10.2
2023-05-17T23:20:50.620Z,10.2
2023-05-17T23:40:51.108Z,9.9
